Time;durP1;ratioP1;P1;durP2;ratioP2;P2;SDS_P1;SDS_P2;PMS_P1;PMS_P2;Temp;Humidity;BMP_temperature;BMP_pressure;BME280_temperature;BME280_humidity;BME280_pressure;Samples;Min_cycle;Max_cycle;Signal;HPM_P1;HPM_P2
2022/04/12 00:00:09;;;;;;;8.23;2.33;;;;;;;16.35;56.22;100094.84;5065600;28;20495;-56
2022/04/12 00:02:41;;;;;;;8.73;2.70;;;;;;;16.13;56.73;100095.56;5067867;28;20500;-57
2022/04/12 00:05:11;;;;;;;6.43;2.35;;;;;;;16.14;56.81;100094.41;5070381;28;20528;-55
2022/04/12 00:07:57;;;;;;;8.73;2.55;;;;;;;16.06;57.10;100095.41;5069429;28;20055;-60
2022/04/12 00:10:25;;;;;;;8.32;2.25;;;;;;;15.99;57.34;100100.84;5068622;28;20512;-58
2022/04/12 00:12:52;;;;;;;7.60;2.20;;;;;;;15.91;58.02;100090.72;5065247;28;20468;-60
2022/04/12 00:15:20;;;;;;;8.23;2.33;;;;;;;16.00;57.48;100097.69;5062043;28;20051;-56
2022/04/12 00:20:33;;;;;;;6.10;2.50;;;;;;;15.92;57.70;100093.13;5071500;28;20037;-58
2022/04/12 00:23:01;;;;;;;6.38;2.70;;;;;;;15.94;57.95;100099.13;5073130;28;20040;-58
2022/04/12 00:25:28;;;;;;;7.65;2.20;;;;;;;15.73;58.63;100095.91;5067462;28;20531;-57
2022/04/12 00:27:57;;;;;;;6.60;2.13;;;;;;;15.83;58.63;100100.09;5067698;28;20135;-56
2022/04/12 00:30:27;;;;;;;10.18;2.38;;;;;;;15.90;58.22;100098.25;5068532;28;20060;-57
2022/04/12 00:32:54;;;;;;;7.13;2.03;;;;;;;15.86;58.55;100099.34;5065345;28;20049;-58
2022/04/12 00:35:23;;;;;;;7.13;2.05;;;;;;;15.66;59.20;100096.53;5064905;28;20102;-55
2022/04/12 00:37:51;;;;;;;7.03;2.47;;;;;;;15.48;59.99;100097.31;5070873;28;20059;-58
2022/04/12 00:40:20;;;;;;;4.85;2.50;;;;;;;15.49;60.02;100087.81;5072213;28;20059;-57
2022/04/12 00:42:48;;;;;;;8.68;2.40;;;;;;;15.66;59.21;100087.41;5063285;28;20051;-58
2022/04/12 00:45:15;;;;;;;7.72;2.10;;;;;;;15.70;59.17;100079.97;5058180;28;20045;-59
2022/04/12 00:47:43;;;;;;;7.80;2.47;;;;;;;15.60;59.40;100072.22;5067907;28;20075;-55
2022/04/12 00:50:11;;;;;;;6.90;2.53;;;;;;;15.49;59.96;100066.41;5067009;28;20040;-56
2022/04/12 00:52:50;;;;;;;9.57;2.65;;;;;;;15.75;59.63;100068.56;5067050;28;20052;-57
2022/04/12 00:55:18;;;;;;;8.63;2.60;;;;;;;15.79;59.06;100067.47;5067276;28;20052;-56
2022/04/12 00:57:47;;;;;;;7.40;2.50;;;;;;;15.35;60.57;100070.78;5033829;28;20060;-57
2022/04/12 01:00:17;;;;;;;7.13;2.70;;;;;;;15.44;60.28;100071.44;5064046;28;20047;-57
2022/04/12 01:02:45;;;;;;;4.57;2.20;;;;;;;15.42;60.58;100071.00;5059910;28;20056;-58
2022/04/12 01:05:13;;;;;;;4.40;2.00;;;;;;;15.33;60.93;100079.47;5064845;28;20542;-54
2022/04/12 01:07:42;;;;;;;8.82;3.05;;;;;;;15.42;60.53;100071.00;5068044;28;20045;-55
2022/04/12 01:10:09;;;;;;;8.27;2.33;;;;;;;15.44;60.49;100065.88;5067233;28;20527;-58
2022/04/12 01:12:41;;;;;;;6.00;1.98;;;;;;;15.41;60.54;100061.84;5069243;28;20299;-55
2022/04/12 01:15:14;;;;;;;10.93;2.70;;;;;;;15.34;60.72;100061.66;5064066;28;20045;-55
2022/04/12 01:17:45;;;;;;;8.85;2.25;;;;;;;15.25;60.92;100069.38;5063966;28;20051;-57
2022/04/12 01:20:14;;;;;;;8.05;2.42;;;;;;;15.24;61.05;100069.72;5065678;28;20048;-58
2022/04/12 01:23:19;;;;;;;6.43;2.73;;;;;;;15.34;60.50;100071.97;5064638;28;20122;-57
2022/04/12 01:25:46;;;;;;;8.80;2.65;;;;;;;15.29;60.62;100075.03;5061564;28;20037;-56
2022/04/12 01:28:13;;;;;;;7.28;2.47;;;;;;;15.18;60.95;100071.19;5069411;28;20071;-58
2022/04/12 01:30:40;;;;;;;8.63;2.42;;;;;;;15.38;60.40;100064.50;5063354;28;20048;-55
2022/04/12 01:33:08;;;;;;;7.93;2.38;;;;;;;15.47;59.97;100060.41;5067179;28;20044;-58
2022/04/12 01:35:36;;;;;;;8.50;2.47;;;;;;;15.54;59.52;100066.13;5063592;28;20403;-59
2022/04/12 01:38:06;;;;;;;7.85;2.40;;;;;;;15.34;60.43;100066.41;5066966;28;20045;-54
2022/04/12 01:40:33;;;;;;;5.80;2.40;;;;;;;15.31;60.53;100072.66;5065110;28;20668;-57
2022/04/12 01:43:01;;;;;;;9.90;2.78;;;;;;;15.13;61.12;100077.78;5063566;28;20063;-59
2022/04/12 01:45:28;;;;;;;5.68;2.28;;;;;;;14.79;62.30;100086.84;5059614;28;20065;-56
2022/04/12 01:47:56;;;;;;;10.52;2.45;;;;;;;14.88;62.22;100094.97;5067984;28;20061;-55
2022/04/12 01:50:23;;;;;;;7.95;2.47;;;;;;;14.78;62.97;100101.88;5069630;28;20057;-57
2022/04/12 01:52:51;;;;;;;6.60;2.40;;;;;;;14.89;62.29;100100.16;5069672;28;20060;-57
2022/04/12 01:55:18;;;;;;;11.00;2.47;;;;;;;14.87;62.64;100085.06;5067537;28;20384;-58
2022/04/12 01:57:45;;;;;;;6.82;2.65;;;;;;;15.11;61.53;100079.31;5069438;28;20041;-59
2022/04/12 02:00:13;;;;;;;6.85;2.53;;;;;;;14.99;61.83;100087.75;5077328;28;20056;-58
2022/04/12 02:02:40;;;;;;;7.07;2.60;;;;;;;14.82;62.58;100083.34;5075064;28;20051;-58
2022/04/12 02:05:08;;;;;;;8.00;2.65;;;;;;;14.95;62.39;100073.78;5069087;28;20044;-59
2022/04/12 02:07:36;;;;;;;7.03;2.53;;;;;;;14.70;62.94;100077.09;5069728;28;20452;-59
2022/04/12 02:10:04;;;;;;;6.00;2.53;;;;;;;14.75;62.78;100071.28;5071115;28;20055;-57
2022/04/12 02:12:32;;;;;;;9.15;2.85;;;;;;;14.82;62.44;100063.94;5069158;28;20037;-53
2022/04/12 02:14:59;;;;;;;7.70;2.70;;;;;;;14.88;62.57;100073.59;5069364;28;20053;-57
2022/04/12 02:17:26;;;;;;;6.03;2.47;;;;;;;14.66;63.33;100063.13;5069299;28;20052;-57
2022/04/12 02:19:54;;;;;;;9.00;2.83;;;;;;;14.65;63.02;100062.31;5065951;28;20519;-53
2022/04/12 02:22:21;;;;;;;5.72;2.60;;;;;;;14.64;63.10;100052.38;5072528;28;20044;-56
2022/04/12 02:24:49;;;;;;;6.90;2.40;;;;;;;14.71;62.54;100050.97;5069504;28;20044;-59
2022/04/12 02:27:16;;;;;;;8.05;2.70;;;;;;;14.61;63.24;100049.50;5069329;28;20041;-56
2022/04/12 02:29:43;;;;;;;6.53;2.50;;;;;;;14.62;62.98;100057.50;5068691;28;20045;-57
2022/04/12 02:32:10;;;;;;;8.20;2.92;;;;;;;14.52;63.09;100048.91;5070684;28;20436;-56
2022/04/12 02:34:38;;;;;;;7.88;2.58;;;;;;;14.58;62.86;100061.31;5067433;28;20048;-56
2022/04/12 02:37:05;;;;;;;7.10;2.35;;;;;;;14.48;62.63;100073.75;5070354;28;20557;-58
2022/04/12 02:39:32;;;;;;;11.77;2.80;;;;;;;14.31;63.38;100081.56;5068600;28;20048;-59
2022/04/12 02:42:00;;;;;;;6.47;2.63;;;;;;;14.32;63.72;100072.91;5067142;28;20060;-56
2022/04/12 02:44:27;;;;;;;9.15;2.80;;;;;;;14.23;64.00;100068.63;5069734;28;20051;-56
2022/04/12 02:46:54;;;;;;;6.20;2.45;;;;;;;14.32;63.28;100074.88;5066157;28;20483;-58
2022/04/12 02:49:22;;;;;;;8.63;3.13;;;;;;;14.39;63.34;100072.28;5067197;28;20048;-59
2022/04/12 02:51:51;;;;;;;11.38;2.60;;;;;;;14.46;63.01;100078.03;5069479;28;20048;-57
2022/04/12 02:54:18;;;;;;;7.72;2.65;;;;;;;14.49;62.52;100066.22;5066581;28;21456;-59
2022/04/12 02:56:46;;;;;;;6.28;2.60;;;;;;;14.40;62.82;100069.16;5064710;28;20052;-57
2022/04/12 02:59:13;;;;;;;7.60;2.47;;;;;;;14.48;62.63;100076.53;5063279;28;20512;-57
2022/04/12 03:01:40;;;;;;;5.53;2.25;;;;;;;14.26;63.03;100065.22;5065181;28;20056;-57
2022/04/12 03:04:08;;;;;;;10.10;2.50;;;;;;;14.33;63.14;100055.09;5071251;28;20056;-56
2022/04/12 03:06:35;;;;;;;6.63;2.55;;;;;;;14.33;62.92;100052.34;5048935;28;20049;-56
2022/04/12 03:09:03;;;;;;;7.85;3.08;;;;;;;14.22;63.16;100040.16;5070972;28;20044;-58
2022/04/12 03:11:30;;;;;;;10.00;2.35;;;;;;;14.20;62.75;100034.16;5070404;28;20044;-57
2022/04/12 03:13:57;;;;;;;8.65;2.70;;;;;;;14.15;63.00;100028.88;5065166;28;20048;-57
2022/04/12 03:16:25;;;;;;;6.45;2.65;;;;;;;14.27;62.41;100030.78;5066253;28;20056;-57
2022/04/12 03:18:52;;;;;;;10.13;2.53;;;;;;;14.28;62.26;100013.81;5067278;28;20506;-58
2022/04/12 03:21:19;;;;;;;5.25;2.17;;;;;;;14.21;62.22;100027.44;5067673;28;20392;-58
2022/04/12 03:23:47;;;;;;;10.38;2.90;;;;;;;14.06;62.31;100027.41;5071502;28;20049;-58
2022/04/12 03:26:14;;;;;;;5.53;1.95;;;;;;;13.88;63.07;100032.44;5066757;28;20063;-59
2022/04/12 03:28:41;;;;;;;9.18;2.33;;;;;;;14.05;62.59;100028.56;5069677;28;20050;-56
2022/04/12 03:31:08;;;;;;;9.90;2.38;;;;;;;14.26;61.40;100029.97;5069524;28;20052;-58
2022/04/12 03:33:36;;;;;;;6.68;2.30;;;;;;;14.28;61.92;100033.22;5073628;28;20052;-58
2022/04/12 03:36:04;;;;;;;5.47;1.80;;;;;;;14.36;60.83;100035.03;5067200;28;20227;-59
2022/04/12 03:38:32;;;;;;;6.63;2.28;;;;;;;13.96;62.03;100044.53;5059285;28;20120;-57
2022/04/12 03:40:59;;;;;;;7.38;2.40;;;;;;;14.06;62.04;100063.41;5063093;28;20052;-58
2022/04/12 03:43:26;;;;;;;8.77;2.33;;;;;;;14.03;61.54;100064.94;5067236;28;20056;-58
2022/04/12 03:45:53;;;;;;;8.65;2.30;;;;;;;14.08;61.70;100063.88;5069328;28;20079;-57
2022/04/12 03:48:21;;;;;;;7.60;2.13;;;;;;;14.13;61.77;100055.31;5066578;28;20064;-55
2022/04/12 03:50:48;;;;;;;5.78;2.10;;;;;;;13.92;62.24;100065.75;5063476;28;20063;-58
2022/04/12 03:53:15;;;;;;;7.60;2.40;;;;;;;14.15;61.17;100053.00;5063190;28;20503;-56
2022/04/12 03:55:46;;;;;;;6.35;1.83;;;;;;;14.06;60.91;100050.38;5060817;28;20054;-54
2022/04/12 03:58:19;;;;;;;4.78;2.22;;;;;;;14.14;60.75;100049.41;5066722;28;20044;-57
2022/04/12 04:00:52;;;;;;;8.23;2.63;;;;;;;14.08;60.59;100041.72;5067805;28;20045;-56
2022/04/12 04:03:20;;;;;;;7.22;2.42;;;;;;;14.00;60.92;100034.38;5066758;28;20041;-58
2022/04/12 04:05:47;;;;;;;6.03;2.47;;;;;;;14.13;60.19;100041.44;5066822;28;20512;-57
2022/04/12 04:08:15;;;;;;;6.47;2.33;;;;;;;13.99;60.78;100043.81;5065085;28;20872;-58
2022/04/12 04:10:42;;;;;;;9.75;2.33;;;;;;;14.02;60.38;100043.09;5069207;28;20491;-57
2022/04/12 04:13:09;;;;;;;5.60;2.08;;;;;;;13.74;60.77;100050.63;5065028;28;20040;-56
2022/04/12 04:15:37;;;;;;;5.63;1.98;;;;;;;13.77;61.09;100044.38;5069269;28;20051;-57
2022/04/12 04:18:04;;;;;;;6.00;2.30;;;;;;;13.67;61.14;100055.94;5060284;28;20056;-57
2022/04/12 04:20:32;;;;;;;4.75;2.05;;;;;;;13.92;60.44;100043.63;5061843;28;20060;-59
2022/04/12 04:22:59;;;;;;;7.40;2.50;;;;;;;13.95;59.97;100048.44;5067052;28;20361;-58
2022/04/12 04:25:26;;;;;;;6.93;2.22;;;;;;;13.80;60.43;100057.50;5067389;28;20776;-58
2022/04/12 04:27:54;;;;;;;7.82;2.20;;;;;;;14.04;59.39;100055.44;5063042;28;20058;-59
2022/04/12 04:30:22;;;;;;;6.18;1.70;;;;;;;13.89;59.91;100061.75;5050480;28;20041;-58
2022/04/12 04:32:50;;;;;;;9.70;2.10;;;;;;;13.91;59.57;100069.69;5069612;28;20048;-57
2022/04/12 04:35:17;;;;;;;5.95;2.17;;;;;;;13.92;59.53;100060.22;5066404;28;20049;-58
2022/04/12 04:37:47;;;;;;;7.93;2.22;;;;;;;13.65;60.45;100072.09;5068671;28;20056;-56
2022/04/12 04:40:16;;;;;;;6.10;2.03;;;;;;;13.67;60.44;100075.31;5066753;28;20056;-57
2022/04/12 04:42:45;;;;;;;6.65;2.08;;;;;;;13.72;60.50;100070.31;5082436;28;20048;-57
2022/04/12 04:45:12;;;;;;;5.82;2.30;;;;;;;13.60;60.22;100070.34;5063319;28;20047;-58
2022/04/12 04:47:53;;;;;;;8.02;2.47;;;;;;;13.62;60.69;100073.56;5070764;28;20530;-58
2022/04/12 04:50:22;;;;;;;7.95;2.58;;;;;;;13.68;60.35;100074.16;5062620;28;20050;-57
2022/04/12 04:52:50;;;;;;;5.85;2.30;;;;;;;13.32;61.53;100075.00;5064037;28;20044;-57
2022/04/12 04:55:18;;;;;;;6.07;2.28;;;;;;;13.48;61.13;100079.47;5080488;28;20044;-59
2022/04/12 04:57:47;;;;;;;6.78;2.22;;;;;;;13.66;60.62;100081.97;5063938;28;20047;-57
2022/04/12 05:00:16;;;;;;;7.60;2.83;;;;;;;13.60;61.06;100086.16;5063281;28;20048;-59
2022/04/12 05:02:49;;;;;;;6.57;2.92;;;;;;;13.68;60.55;100083.25;5069389;28;20040;-54
2022/04/12 05:05:17;;;;;;;8.95;2.72;;;;;;;13.74;60.24;100075.53;5069141;28;20052;-58
2022/04/12 05:07:47;;;;;;;6.82;2.50;;;;;;;13.54;60.98;100086.41;5070688;28;20051;-58
2022/04/12 05:10:16;;;;;;;15.88;2.28;;;;;;;13.58;60.82;100089.28;5065121;28;20052;-57
2022/04/12 05:12:43;;;;;;;13.40;3.28;;;;;;;13.26;61.71;100093.81;5062968;28;20040;-58
2022/04/12 05:15:10;;;;;;;8.15;2.50;;;;;;;13.27;62.08;100098.16;5066132;28;20071;-57
2022/04/12 05:17:38;;;;;;;6.65;2.83;;;;;;;13.15;62.58;100109.22;5065195;28;20055;-58
2022/04/12 05:20:06;;;;;;;6.93;2.65;;;;;;;13.20;62.30;100110.94;5063885;28;20057;-56
2022/04/12 05:22:34;;;;;;;8.45;2.33;;;;;;;13.28;62.26;100105.34;5065023;28;20366;-55
2022/04/12 05:25:01;;;;;;;9.05;2.78;;;;;;;13.19;62.45;100098.28;5072876;28;20044;-55
2022/04/12 05:27:32;;;;;;;7.38;2.70;;;;;;;12.90;63.34;100110.31;5068312;28;20052;-58
2022/04/12 05:30:01;;;;;;;8.63;2.80;;;;;;;12.79;63.98;100108.34;5071278;28;20054;-53
2022/04/12 05:32:28;;;;;;;7.63;2.78;;;;;;;12.98;63.52;100111.38;5069397;28;20499;-57
2022/04/12 05:34:55;;;;;;;10.55;2.88;;;;;;;12.92;63.48;100115.53;5064500;28;20091;-54
2022/04/12 05:37:22;;;;;;;10.20;2.97;;;;;;;12.95;63.59;100104.59;5061511;28;20049;-58
2022/04/12 05:39:50;;;;;;;10.20;2.88;;;;;;;13.27;62.77;100106.47;5072058;28;20049;-58
2022/04/12 05:42:17;;;;;;;11.68;2.67;;;;;;;13.33;62.40;100113.41;5073203;28;20443;-57
2022/04/12 05:44:46;;;;;;;7.32;2.38;;;;;;;13.29;62.46;100111.66;5069663;28;20712;-57
2022/04/12 05:47:14;;;;;;;9.18;3.10;;;;;;;13.37;62.01;100114.28;5071213;28;20051;-56
2022/04/12 05:49:41;;;;;;;11.75;2.83;;;;;;;13.56;61.42;100122.81;5088731;28;20044;-59
2022/04/12 05:52:08;;;;;;;9.48;2.47;;;;;;;13.38;61.65;100123.41;5048922;28;20049;-60
2022/04/12 05:54:36;;;;;;;6.18;2.47;;;;;;;13.65;60.42;100130.97;5083264;28;20063;-56
2022/04/12 05:57:03;;;;;;;14.20;2.33;;;;;;;13.48;60.61;100122.94;5073523;28;20044;-55
2022/04/12 05:59:31;;;;;;;11.23;3.13;;;;;;;13.51;60.47;100127.78;5067106;28;20060;-57
2022/04/12 06:01:58;;;;;;;9.43;2.83;;;;;;;13.26;60.86;100129.75;5067425;28;20048;-55
2022/04/12 06:04:25;;;;;;;9.65;3.15;;;;;;;13.44;60.40;100131.13;5066822;28;20072;-58
2022/04/12 06:06:53;;;;;;;11.90;3.00;;;;;;;13.27;60.91;100136.06;5070689;28;20053;-58
2022/04/12 06:09:20;;;;;;;13.98;2.83;;;;;;;13.37;60.25;100138.41;5069384;28;20044;-60
2022/04/12 06:11:47;;;;;;;12.25;4.93;;;;;;;13.67;59.23;100138.97;5066234;28;20059;-64
2022/04/12 06:14:15;;;;;;;11.68;4.95;;;;;;;13.82;58.80;100138.25;5064043;28;20055;-58
2022/04/12 06:16:42;;;;;;;15.02;4.00;;;;;;;14.03;58.07;100136.94;5067237;28;20354;-58
2022/04/12 06:19:09;;;;;;;13.85;2.97;;;;;;;14.31;58.02;100129.47;5054840;28;20515;-61
2022/04/12 06:21:37;;;;;;;8.60;2.70;;;;;;;14.29;58.79;100134.56;5070371;28;20044;-58
2022/04/12 06:24:04;;;;;;;10.02;2.70;;;;;;;14.47;57.27;100146.16;5072981;28;20262;-57
2022/04/12 06:26:31;;;;;;;11.18;3.13;;;;;;;14.24;57.27;100150.59;5070194;28;20056;-57
2022/04/12 06:28:59;;;;;;;10.77;2.53;;;;;;;14.06;57.65;100140.94;5087581;28;20053;-58
2022/04/12 06:31:26;;;;;;;9.35;2.67;;;;;;;14.31;58.15;100146.06;5076178;28;20060;-61
2022/04/12 06:33:53;;;;;;;9.45;2.42;;;;;;;14.01;57.76;100158.63;5071617;28;20056;-58
2022/04/12 06:36:21;;;;;;;8.52;2.55;;;;;;;14.06;57.42;100161.16;5065567;28;20041;-57
2022/04/12 06:38:50;;;;;;;8.75;3.30;;;;;;;14.24;56.81;100168.00;5075732;28;20047;-61
2022/04/12 06:41:18;;;;;;;7.82;3.00;;;;;;;14.34;56.98;100172.28;5067734;28;20056;-57
2022/04/12 06:43:45;;;;;;;8.45;2.85;;;;;;;14.48;56.21;100179.06;5080437;28;20072;-57
2022/04/12 06:46:12;;;;;;;8.68;2.58;;;;;;;14.47;55.24;100171.88;5078280;28;20123;-56
2022/04/12 06:48:39;;;;;;;9.75;3.13;;;;;;;14.51;55.78;100189.44;5081368;28;20052;-59
2022/04/12 06:51:07;;;;;;;6.57;2.53;;;;;;;14.84;55.21;100185.56;5060835;28;20040;-59
2022/04/12 06:53:35;;;;;;;9.15;2.78;;;;;;;14.73;55.24;100190.03;5066867;28;20049;-58
2022/04/12 06:56:02;;;;;;;7.75;2.70;;;;;;;14.61;54.97;100182.56;5076257;28;20067;-55
2022/04/12 06:58:29;;;;;;;9.02;3.00;;;;;;;14.57;55.42;100212.16;5076326;28;20056;-58
2022/04/12 07:00:56;;;;;;;10.00;3.05;;;;;;;14.35;55.86;100216.25;5072362;28;20527;-57
2022/04/12 07:03:24;;;;;;;8.30;2.40;;;;;;;14.48;55.06;100211.50;5061003;28;20052;-56
2022/04/12 07:05:55;;;;;;;11.40;2.60;;;;;;;14.47;54.96;100213.44;5067742;28;20040;-56
2022/04/12 07:08:23;;;;;;;11.88;2.83;;;;;;;14.64;54.88;100215.94;5067229;28;20404;-56
2022/04/12 07:10:51;;;;;;;10.02;3.00;;;;;;;14.62;54.03;100228.53;5075995;28;20381;-55
2022/04/12 07:13:19;;;;;;;8.35;2.50;;;;;;;14.78;54.47;100234.13;5075290;28;20056;-59
2022/04/12 07:15:46;;;;;;;8.60;2.50;;;;;;;14.86;53.70;100233.97;5074735;28;20636;-62
2022/04/12 07:18:14;;;;;;;11.90;3.10;;;;;;;14.84;53.59;100243.81;5068271;28;20050;-59
2022/04/12 07:20:41;;;;;;;13.85;3.10;;;;;;;14.79;54.25;100236.56;5075400;28;20083;-57
2022/04/12 07:23:08;;;;;;;15.00;2.70;;;;;;;14.86;53.66;100244.25;5075751;28;20060;-57
2022/04/12 07:25:36;;;;;;;7.07;2.47;;;;;;;15.02;52.66;100236.78;5075119;28;20052;-57
2022/04/12 07:28:04;;;;;;;12.43;3.28;;;;;;;14.99;52.75;100237.50;5063865;28;20037;-55
2022/04/12 07:30:31;;;;;;;6.80;2.42;;;;;;;15.00;52.79;100234.38;5083480;28;20045;-59
2022/04/12 07:33:17;;;;;;;7.53;2.22;;;;;;;15.32;52.71;100238.00;5059980;28;20056;-56
2022/04/12 07:35:44;;;;;;;9.52;2.60;;;;;;;15.30;52.23;100237.56;5048202;28;20672;-59
2022/04/12 07:38:12;;;;;;;8.15;2.25;;;;;;;15.38;52.39;100237.38;5075757;28;20503;-54
2022/04/12 07:40:39;;;;;;;7.72;2.13;;;;;;;15.31;51.93;100234.44;5073619;28;20059;-58
2022/04/12 07:43:06;;;;;;;10.18;3.20;;;;;;;15.38;51.98;100240.16;5064519;28;20045;-62
2022/04/12 07:45:34;;;;;;;9.57;2.65;;;;;;;15.51;51.46;100232.59;5066960;28;20051;-57
2022/04/12 07:48:01;;;;;;;13.07;2.40;;;;;;;15.53;51.79;100224.72;5073674;28;20053;-59
2022/04/12 07:50:28;;;;;;;5.85;2.28;;;;;;;15.64;52.81;100236.88;5069085;28;20057;-57
2022/04/12 07:52:55;;;;;;;10.30;2.60;;;;;;;15.72;51.64;100235.91;5063290;28;20048;-56
2022/04/12 07:55:23;;;;;;;13.13;2.92;;;;;;;15.84;51.01;100233.03;5071171;28;20064;-57
2022/04/12 07:57:50;;;;;;;10.63;2.50;;;;;;;15.96;49.93;100232.09;5069512;28;20053;-61
2022/04/12 08:00:17;;;;;;;11.35;2.55;;;;;;;15.98;49.97;100224.22;5072315;28;20135;-58
2022/04/12 08:02:44;;;;;;;8.93;2.55;;;;;;;15.92;49.93;100215.34;5074467;28;20051;-56
2022/04/12 08:05:12;;;;;;;8.88;2.70;;;;;;;15.86;50.31;100227.13;5074861;28;20044;-56
2022/04/12 08:07:44;;;;;;;11.70;2.55;;;;;;;15.93;50.12;100219.75;5070074;28;20052;-55
2022/04/12 08:10:11;;;;;;;9.07;2.28;;;;;;;16.17;49.86;100219.53;5068215;28;20052;-58
2022/04/12 08:12:39;;;;;;;5.88;1.92;;;;;;;16.02;49.80;100214.81;5066719;28;20048;-56
2022/04/12 08:15:06;;;;;;;10.70;2.60;;;;;;;15.88;50.70;100208.13;5072700;28;20076;-56
2022/04/12 08:17:34;;;;;;;10.63;2.40;;;;;;;16.10;49.58;100211.03;5074733;28;20049;-56
2022/04/12 08:20:01;;;;;;;7.40;2.28;;;;;;;16.21;49.02;100214.03;5065648;28;20068;-56
2022/04/12 08:22:28;;;;;;;11.05;2.45;;;;;;;16.67;48.60;100219.44;5069281;28;20056;-57
2022/04/12 08:25:16;;;;;;;8.85;2.83;;;;;;;16.99;47.47;100217.31;5066591;28;20041;-57
2022/04/12 08:27:43;;;;;;;9.57;2.28;;;;;;;16.94;48.06;100220.41;5069905;28;20041;-56
2022/04/12 08:30:11;;;;;;;8.75;2.42;;;;;;;16.89;47.64;100221.47;5056882;28;20538;-53
2022/04/12 08:32:38;;;;;;;7.43;2.10;;;;;;;17.15;47.38;100212.47;5068524;28;20491;-59
2022/04/12 08:35:06;;;;;;;14.63;3.05;;;;;;;17.33;46.97;100210.78;5073261;28;20065;-54
2022/04/12 08:37:33;;;;;;;10.95;2.40;;;;;;;17.35;46.51;100211.22;5056900;28;20068;-57
2022/04/12 08:40:02;;;;;;;12.98;1.98;;;;;;;17.50;46.57;100204.78;5074318;28;20507;-55
2022/04/12 08:42:30;;;;;;;8.88;1.95;;;;;;;17.55;46.22;100203.66;5058653;28;20061;-53
2022/04/12 08:44:58;;;;;;;10.50;2.00;;;;;;;17.73;46.22;100204.75;5065898;28;20068;-56
2022/04/12 08:47:26;;;;;;;14.80;2.15;;;;;;;17.81;45.57;100210.06;5073416;28;20519;-55
2022/04/12 08:49:53;;;;;;;9.43;2.00;;;;;;;17.85;44.86;100212.91;5072898;28;20055;-55
2022/04/12 08:52:22;;;;;;;12.93;2.20;;;;;;;17.82;44.71;100210.84;5074457;28;20048;-54
2022/04/12 08:54:49;;;;;;;11.77;2.17;;;;;;;18.00;43.70;100203.56;5073836;28;20056;-57
2022/04/12 08:57:17;;;;;;;9.98;1.92;;;;;;;18.39;43.41;100210.53;5070765;28;20075;-55
2022/04/12 08:59:44;;;;;;;10.85;2.00;;;;;;;18.42;43.08;100206.19;5069461;28;20048;-53
2022/04/12 09:02:11;;;;;;;14.48;2.00;;;;;;;18.52;42.14;100214.69;5073059;28;20049;-56
2022/04/12 09:04:39;;;;;;;10.73;2.10;;;;;;;18.52;43.49;100217.47;5071039;28;20388;-53
2022/04/12 09:07:10;;;;;;;9.95;1.73;;;;;;;18.19;43.04;100209.03;5073926;28;20045;-54
2022/04/12 09:09:39;;;;;;;12.32;3.35;;;;;;;18.31;43.43;100208.00;5067131;28;20045;-56
2022/04/12 09:12:09;;;;;;;8.00;1.93;;;;;;;18.42;43.19;100208.97;5072180;28;20040;-54
2022/04/12 09:14:37;;;;;;;8.73;1.90;;;;;;;18.47;43.88;100198.31;5060191;28;20056;-59
2022/04/12 09:17:11;;;;;;;12.13;2.55;;;;;;;18.72;42.37;100201.41;5062690;28;20089;-51
2022/04/12 09:19:43;;;;;;;12.73;2.13;;;;;;;18.74;43.13;100199.03;5066921;28;20060;-57
2022/04/12 09:22:18;;;;;;;10.55;2.15;;;;;;;18.52;43.18;100200.75;5069185;28;20056;-58
2022/04/12 09:24:50;;;;;;;10.40;2.60;;;;;;;18.48;43.39;100199.88;5062527;28;20071;-54
2022/04/12 09:27:26;;;;;;;10.57;2.28;;;;;;;18.83;42.94;100197.53;5073052;28;20055;-56
2022/04/12 09:30:02;;;;;;;10.55;2.20;;;;;;;18.73;42.96;100194.63;5060945;28;20053;-55
2022/04/12 09:32:35;;;;;;;7.03;1.90;;;;;;;18.79;42.84;100193.91;5053162;28;20045;-58
2022/04/12 09:35:02;;;;;;;9.25;2.17;;;;;;;19.05;41.98;100193.00;5067649;28;20049;-54
2022/04/12 09:37:34;;;;;;;16.40;3.22;;;;;;;18.66;43.08;100198.13;5071541;28;20048;-54
2022/04/12 09:40:05;;;;;;;8.40;2.80;;;;;;;18.72;42.89;100199.44;5059843;28;20055;-53
2022/04/12 09:42:42;;;;;;;7.28;2.60;;;;;;;18.88;43.10;100199.22;5069304;28;20057;-58
2022/04/12 09:45:15;;;;;;;9.82;2.70;;;;;;;19.03;42.80;100200.97;5068388;28;20518;-57
2022/04/12 09:47:43;;;;;;;13.95;2.63;;;;;;;19.44;41.75;100176.66;5065817;28;20476;-57
2022/04/12 09:50:32;;;;;;;11.80;2.00;;;;;;;19.26;42.30;100167.28;5059651;28;20044;-58
2022/04/12 09:53:02;;;;;;;12.50;2.45;;;;;;;19.44;42.34;100177.44;5072910;28;20063;-58
2022/04/12 09:55:41;;;;;;;8.40;2.53;;;;;;;19.30;42.05;100174.53;5075215;28;20056;-57
2022/04/12 09:58:18;;;;;;;11.23;2.42;;;;;;;19.20;42.89;100172.41;5071162;28;20041;-58
2022/04/12 10:00:48;;;;;;;14.57;2.47;;;;;;;19.34;42.82;100180.16;5065587;28;20493;-57
2022/04/12 10:03:20;;;;;;;17.60;5.20;;;;;;;19.34;42.71;100194.09;5077361;28;20045;-59
2022/04/12 10:05:47;;;;;;;10.85;4.22;;;;;;;19.43;42.49;100195.41;5069745;28;20059;-58
2022/04/12 10:08:17;;;;;;;13.32;5.10;;;;;;;19.48;42.22;100195.06;5068150;28;20041;-59
2022/04/12 10:10:45;;;;;;;11.20;2.67;;;;;;;19.37;41.96;100182.97;5075655;28;20111;-59
2022/04/12 10:13:15;;;;;;;14.75;4.32;;;;;;;19.23;42.79;100182.81;5075607;28;20059;-58
2022/04/12 10:15:43;;;;;;;10.30;3.08;;;;;;;19.48;42.91;100167.13;5068375;28;20052;-57
2022/04/12 10:18:15;;;;;;;14.82;3.20;;;;;;;19.53;42.35;100161.16;5074351;28;20516;-61
2022/04/12 10:20:43;;;;;;;14.27;2.83;;;;;;;19.56;42.31;100156.81;5073642;28;20052;-58
2022/04/12 10:23:16;;;;;;;11.95;2.75;;;;;;;19.76;42.35;100147.78;5070371;28;20061;-56
2022/04/12 10:25:47;;;;;;;11.10;2.80;;;;;;;19.86;41.32;100146.22;5071944;28;20052;-58
2022/04/12 10:28:15;;;;;;;18.70;5.70;;;;;;;19.94;41.55;100147.91;5072306;28;20581;-56
2022/04/12 10:30:42;;;;;;;12.05;4.13;;;;;;;19.84;42.19;100140.25;5073062;28;20423;-54
2022/04/12 10:33:17;;;;;;;16.38;3.58;;;;;;;19.85;41.53;100125.88;5067613;28;20052;-60
2022/04/12 10:35:44;;;;;;;8.98;2.88;;;;;;;20.00;42.13;100124.78;5072450;28;20059;-59
2022/04/12 10:38:16;;;;;;;10.45;3.28;;;;;;;19.69;42.03;100130.16;5074434;28;20040;-60
2022/04/12 10:40:49;;;;;;;6.95;2.17;;;;;;;19.53;43.06;100150.00;5075623;28;20057;-54
2022/04/12 10:43:24;;;;;;;12.68;3.22;;;;;;;19.58;42.58;100157.22;5071647;28;20045;-60
2022/04/12 10:45:52;;;;;;;11.50;2.90;;;;;;;19.86;42.35;100163.81;5067631;28;20044;-57
2022/04/12 10:48:25;;;;;;;13.68;2.95;;;;;;;19.74;42.41;100164.13;5064945;28;20575;-59
2022/04/12 10:50:58;;;;;;;9.82;2.60;;;;;;;20.06;42.22;100165.16;5066529;28;20044;-59
2022/04/12 10:53:42;;;;;;;12.52;3.10;;;;;;;20.00;41.91;100163.91;5072483;28;20056;-61
2022/04/12 10:56:11;;;;;;;10.05;2.63;;;;;;;19.98;42.51;100159.88;5067347;28;20053;-56
2022/04/12 10:58:39;;;;;;;10.48;3.08;;;;;;;20.21;41.33;100168.06;5067305;28;20040;-57
2022/04/12 11:01:10;;;;;;;13.23;3.33;;;;;;;20.05;41.72;100168.31;5067484;28;20052;-57
2022/04/12 11:03:41;;;;;;;17.10;9.85;;;;;;;20.09;41.78;100180.34;5064894;28;20053;-55
2022/04/12 11:06:11;;;;;;;15.68;7.63;;;;;;;20.34;42.27;100183.31;5087594;28;20052;-56
2022/04/12 11:08:38;;;;;;;16.48;4.13;;;;;;;20.39;41.60;100196.94;5070265;28;20048;-56
2022/04/12 11:11:06;;;;;;;14.77;3.03;;;;;;;20.41;41.80;100211.31;5062938;28;20052;-56
2022/04/12 11:13:35;;;;;;;13.18;5.00;;;;;;;20.44;41.42;100208.53;5067210;28;20056;-55
2022/04/12 11:16:10;;;;;;;9.65;3.67;;;;;;;20.45;41.46;100203.75;5068637;28;20715;-54
2022/04/12 11:18:47;;;;;;;12.45;4.80;;;;;;;20.27;41.46;100202.84;5066540;28;20056;-57
2022/04/12 11:21:16;;;;;;;11.13;4.15;;;;;;;20.42;41.28;100215.72;5071543;28;20045;-55
2022/04/12 11:23:47;;;;;;;14.80;4.75;;;;;;;20.29;42.07;100212.47;5072466;28;20059;-55
2022/04/12 11:26:27;;;;;;;15.35;3.42;;;;;;;20.22;41.71;100200.44;5067253;28;20053;-54
2022/04/12 11:28:56;;;;;;;11.27;3.55;;;;;;;20.42;41.63;100219.31;5067917;28;20401;-55
2022/04/12 11:31:23;;;;;;;13.38;3.25;;;;;;;20.42;41.39;100210.94;5063742;28;20044;-55